AirNav   Phillips 66 Aviation Fuel
 
 858 users online  

PA88 Nemacolin Airport
Farmington, Pennsylvania, USA

GOING TO FARMINGTON?


FAA INFORMATION EFFECTIVE 12 SEPTEMBER 2019

Location

FAA Identifier: PA88
Lat/Long: 39-48-20.2730N 079-32-56.1480W
39-48.337883N 079-32.935800W
39.8056314,-79.5489300
(estimated)
Elevation: 2010 ft. / 613 m (estimated)
Variation: 08W (1985)
From city: 1 mile E of FARMINGTON, PA
Time zone: UTC -4 (UTC -5 during Standard Time)
Zip code: 15437

Airport Operations

Airport use: Private use. Permission required prior to landing
Activation date: 12/1969
Control tower: no
ARTCC: CLEVELAND CENTER
FSS: ALTOONA FLIGHT SERVICE STATION
Attendance: UNATNDD
Wind indicator: yes
Segmented circle: no
Lights: ACTIVATE MIRL RY 05/23 - 123.0.
Beacon: white-green (lighted land airport)
FOR ROTG BCN, PHONE 724-329-8555.

Airport Communications

UNICOM: 123.0
WX AWOS-3 at VVS (10 nm NW): 133.325 (724-626-8745)
WX AWOS-3 at 2G4 (17 nm SE): 120.125 (301-746-8443)
WX ASOS at MGW (20 nm SW): 120.675 (304-296-7103)

Nearby radio navigation aids

VOR radial/distance  VOR name  Freq  Var
IHDr227/13.4INDIAN HEAD VORTAC108.2006W
MGWr049/20.7MORGANTOWN VOR/DME111.6005W
GRVr300/25.2GRANTSVILLE VOR/DME112.3006W
AGCr150/36.3ALLEGHENY VOR/DME110.0009W

 
NDB name  Hdg/Dist  Freq  Var  ID
CAMOR125/10.129908WVV ...- ...-
STOYSTOWN250/33.620910WSYS ... -.-- ...

Airport Services

Airframe service: NONE
Powerplant service: NONE

Runway Information

Runway 5/23

Dimensions: 3980 x 50 ft. / 1213 x 15 m
Surface: asphalt
Runway edge lights: medium intensity
RUNWAY 5  RUNWAY 23
Traffic pattern: leftleft
Displaced threshold: no900 ft.

Airport Ownership and Management from official FAA records

Ownership: Privately-owned
Owner: NEMACOLIN WOODLANDS INC
1001 LAFAYETTE DRIVE
FARMINGTON, PA 15437
Phone 724-329-6121
Manager: DANIEL RIMMER
1001 LAFAYETTE DRIVE
FARMINGTON, PA 15437
Phone (724) 329-6121

Additional Remarks

FOR CD CTC CLEVELAND ARTCC AT 440-774-0490.

Instrument Procedures

There are no published instrument procedures at PA88.

Some nearby airports with instrument procedures:

KVVS - Joseph A Hardy Connellsville Airport (10 nm NW)
2G4 - Garrett County Airport (17 nm SE)
KMGW - Morgantown Municipal Airport-Walter L. Bill Hart Field (20 nm SW)
KWAY - Greene County Airport (27 nm W)
KFWQ - Rostraver Airport (28 nm NW)
 
Loc | Ops | Rwys | IFR | FBO | Links
Com | Nav | Svcs | Stats | Notes
Area around PA88 (Nemacolin Airport)
 
Road maps at: MapQuest Bing Google
 
Aerial photo
WARNING: Photo may not be current or correct
Aerial photo of PA88 (Nemacolin Airport)
Photo by Don MacLennan
Photo taken 29-Jun-2019
looking southwest.

Do you have a better or more recent aerial photo of Nemacolin Airport that you would like to share? If so, please send us your photo.

 
Sectional chart

 
Airport distance calculator
Flying to Nemacolin Airport? Find the distance to fly.

From to PA88

Sunrise and sunset
Times for 21-Sep-2019
 Local
(UTC-4)
 Zulu
(UTC)
Morning civil twilight06:3910:39
Sunrise07:0611:06
Sunset19:1723:17
Evening civil twilight19:4423:44

Current date and time
Zulu (UTC)  21-Sep-2019 22:47:49
Local (UTC-4)  21-Sep-2019 18:47:49
 
METAR
K2G4 
17nm SE 
212220Z AUTO 00000KT 10SM CLR 22/16 A3029 RMK AO1
KMGW 
19nm SW 
212153Z 27011G17KT 10SM SCT060 28/17 A3020 RMK AO2 LTG DSNT NE SLP220 T02780167
KP53 
28nm NW 
212156Z AUTO 19009G19KT 22/20 A2984 RMK AO1 SLP103 T02220200
K2G9 
28nm NE 
212235Z AUTO 26003KT 10SM SCT120 23/17 A3025 RMK AO2
KLBE 
28nm N 
212145Z 19005KT 10SM FEW060 27/18 A3019
TAF
KMGW 
19nm SW 
211720Z 2118/2218 23006KT P6SM VCSH BKN060 FM220200 19003KT P6SM BKN100 FM221700 22005KT P6SM FEW060 BKN250
NOTAMs
Click for the latest NOTAMs
NOTAMs are issued by the DoD/FAA and will open in a separate window not controlled by AirNav.

 

 
 

Would you like to see your business listed on this page?

 If your business provides an interesting product or service to pilots, flight crews, aircraft, or users of the Nemacolin Airport, you should consider listing it here.  To start the listing process, click on the button below
 
Add a business
 

Other Pages about Nemacolin Airport

www.nemacolin.com/airfield
 
Update a link
 
Copyright © AirNav, LLC. All rights reserved. Privacy Policy  Contact